Time;durP1;ratioP1;P1;durP2;ratioP2;P2;SDS_P1;SDS_P2;PMS_P1;PMS_P2;Temp;Humidity;BMP_temperature;BMP_pressure;BME280_temperature;BME280_humidity;BME280_pressure;Samples;Min_cycle;Max_cycle;Signal;HPM_P1;HPM_P2
2021/03/10 00:01:51;;;;;;;129.48;84.88;;;128.00;2252.80;;;;;;5112401;28;20020;-54
2021/03/10 00:04:17;;;;;;;140.80;89.10;;;128.00;2252.80;;;;;;5112669;28;20024;-54
2021/03/10 00:06:43;;;;;;;130.52;83.18;;;128.50;2252.80;;;;;;5111083;28;20442;-53
2021/03/10 00:09:08;;;;;;;128.23;91.47;;;128.10;2252.80;;;;;;5112800;28;20098;-53
2021/03/10 00:11:34;;;;;;;104.35;70.50;;;128.10;2252.80;;;;;;5112788;28;20028;-53
2021/03/10 00:14:00;;;;;;;109.30;65.88;;;128.30;2252.80;;;;;;5112299;28;20373;-54
2021/03/10 00:16:26;;;;;;;93.47;56.90;;;128.00;2252.80;;;;;;5112616;28;20023;-54
2021/03/10 00:18:51;;;;;;;95.43;57.88;;;103.20;2227.20;;;;;;5112207;28;20350;-55
2021/03/10 00:21:17;;;;;;;73.55;51.45;;;103.10;2227.20;;;;;;5112496;28;20032;-55
2021/03/10 00:23:43;;;;;;;74.25;48.35;;;103.20;2227.20;;;;;;5112051;28;20030;-54
2021/03/10 00:26:09;;;;;;;73.45;49.13;;;103.00;2227.20;;;;;;5111928;28;20039;-51
2021/03/10 00:28:34;;;;;;;65.60;46.15;;;102.70;2227.20;;;;;;5112337;28;20106;-56
2021/03/10 00:31:00;;;;;;;67.40;44.05;;;102.80;2227.20;;;;;;5112064;28;20024;-53
2021/03/10 00:33:26;;;;;;;71.03;45.17;;;102.80;2227.20;;;;;;5112434;28;20385;-53
2021/03/10 00:35:51;;;;;;;93.05;57.80;;;102.80;2227.20;;;;;;5111886;28;20034;-55
2021/03/10 00:38:17;;;;;;;87.50;56.58;;;102.90;2227.20;;;;;;5112250;28;20024;-54
2021/03/10 00:40:43;;;;;;;103.15;60.10;;;102.80;2227.20;;;;;;5111818;28;20053;-54
2021/03/10 00:43:09;;;;;;;76.90;51.13;;;102.90;2227.20;;;;;;5111898;28;20051;-52
2021/03/10 00:45:34;;;;;;;73.68;45.60;;;102.90;2227.20;;;;;;5112123;28;20055;-51
2021/03/10 00:48:00;;;;;;;67.57;44.00;;;102.90;2227.20;;;;;;5111889;28;20117;-55
2021/03/10 00:50:28;;;;;;;68.68;40.45;;;103.00;2227.20;;;;;;5111892;28;20035;-53
2021/03/10 00:52:55;;;;;;;66.28;39.58;;;102.70;2227.20;;;;;;5111835;28;20084;-53
2021/03/10 00:55:21;;;;;;;57.78;38.45;;;102.60;2227.20;;;;;;5111471;28;20034;-54
2021/03/10 00:57:47;;;;;;;59.65;37.60;;;102.90;2227.20;;;;;;5111553;28;20447;-55
2021/03/10 01:00:14;;;;;;;42.78;29.30;;;103.00;2227.20;;;;;;5111757;28;20505;-54
2021/03/10 01:02:39;;;;;;;42.08;28.38;;;102.80;2227.20;;;;;;5111703;28;20032;-54
2021/03/10 01:05:06;;;;;;;46.45;29.42;;;102.80;2227.20;;;;;;5111489;28;20390;-52
2021/03/10 01:07:32;;;;;;;125.85;88.88;;;102.90;2227.20;;;;;;5111402;28;20027;-55
2021/03/10 01:09:58;;;;;;;54.70;37.42;;;103.00;2227.20;;;;;;5111612;28;20030;-54
2021/03/10 01:12:24;;;;;;;54.22;38.40;;;103.00;2227.20;;;;;;5111413;28;20370;-54
2021/03/10 01:14:49;;;;;;;47.08;32.20;;;103.10;2227.20;;;;;;5092739;28;20027;-52
2021/03/10 01:17:15;;;;;;;44.15;29.13;;;102.90;2227.20;;;;;;5110803;28;20035;-52
2021/03/10 01:19:41;;;;;;;39.70;27.90;;;103.10;2227.20;;;;;;5110705;28;20520;-56
2021/03/10 01:22:07;;;;;;;38.22;27.40;;;103.00;2227.20;;;;;;5111432;28;20027;-55
2021/03/10 01:24:33;;;;;;;37.10;25.17;;;102.90;2227.20;;;;;;5110939;28;20035;-52
2021/03/10 01:26:58;;;;;;;33.20;24.15;;;102.70;2227.20;;;;;;5111167;28;20067;-54
2021/03/10 01:29:24;;;;;;;42.95;27.85;;;102.60;2227.20;;;;;;5111111;28;20023;-53
2021/03/10 01:31:50;;;;;;;44.58;31.95;;;102.50;2227.20;;;;;;5111642;28;20028;-54
2021/03/10 01:34:16;;;;;;;48.15;34.45;;;77.70;2227.20;;;;;;5114838;28;20076;-55
2021/03/10 01:36:42;;;;;;;55.33;34.42;;;102.60;2227.20;;;;;;5114409;28;20031;-55
2021/03/10 01:39:07;;;;;;;45.92;31.38;;;102.60;2227.20;;;;;;5114749;28;20055;-64
2021/03/10 01:41:33;;;;;;;46.67;30.48;;;102.60;2227.20;;;;;;5114272;28;20031;-56
2021/03/10 01:43:59;;;;;;;45.95;30.45;;;102.80;2227.20;;;;;;5114516;28;20042;-53
2021/03/10 01:46:37;;;;;;;44.53;27.17;;;102.90;2227.20;;;;;;5114466;28;20031;-61
2021/03/10 01:49:03;;;;;;;44.80;26.67;;;102.90;2227.20;;;;;;5113971;28;20610;-58
2021/03/10 01:51:29;;;;;;;44.42;30.00;;;102.90;2227.20;;;;;;5113635;28;20023;-55
2021/03/10 01:53:55;;;;;;;39.33;26.23;;;102.70;2227.20;;;;;;5113688;28;20027;-53
2021/03/10 01:56:24;;;;;;;38.05;25.88;;;102.90;2227.20;;;;;;5114061;28;20032;-59
2021/03/10 01:58:50;;;;;;;33.20;23.73;;;103.00;2227.20;;;;;;5113964;28;20046;-56
2021/03/10 02:01:16;;;;;;;36.03;24.05;;;102.80;2227.20;;;;;;5115055;28;20098;-54
2021/03/10 02:03:41;;;;;;;36.42;25.00;;;103.00;2227.20;;;;;;5110571;28;20102;-51
2021/03/10 02:06:09;;;;;;;37.83;24.58;;;103.10;2227.20;;;;;;5110559;28;20032;-51
2021/03/10 02:08:52;;;;;;;29.67;20.42;;;102.70;2227.20;;;;;;5110789;28;20106;-61
2021/03/10 02:11:32;;;;;;;34.47;23.57;;;102.80;2227.20;;;;;;5111746;28;20039;-51
2021/03/10 02:14:16;;;;;;;47.20;29.05;;;102.90;2227.20;;;;;;5110732;28;20024;-55
2021/03/10 02:16:54;;;;;;;44.25;35.35;;;102.90;2227.20;;;;;;5110641;28;20067;-54
2021/03/10 02:19:29;;;;;;;36.35;23.13;;;102.90;2227.20;;;;;;5109880;28;20067;-53
2021/03/10 02:22:13;;;;;;;37.60;23.95;;;103.00;2227.20;;;;;;5110837;28;20028;-54
2021/03/10 02:25:06;;;;;;;51.80;32.95;;;102.90;2227.20;;;;;;5110369;28;20038;-52
2021/03/10 02:27:52;;;;;;;30.73;24.45;;;102.90;2227.20;;;;;;5110299;28;20097;-54
2021/03/10 02:30:40;;;;;;;34.20;24.27;;;102.90;2227.20;;;;;;5114630;28;20024;-54
2021/03/10 02:33:11;;;;;;;30.83;20.20;;;102.50;2227.20;;;;;;5114241;28;20039;-53
2021/03/10 02:35:44;;;;;;;34.83;24.33;;;102.70;2227.20;;;;;;5114621;28;20111;-53
2021/03/10 02:38:18;;;;;;;32.80;22.38;;;102.60;2227.20;;;;;;5114205;28;20095;-55
2021/03/10 02:40:46;;;;;;;25.60;19.77;;;102.80;2227.20;;;;;;5097089;28;20534;-54
2021/03/10 02:43:12;;;;;;;26.95;19.83;;;102.80;2227.20;;;;;;5114542;28;20419;-54
2021/03/10 02:45:38;;;;;;;25.15;17.92;;;102.80;2227.20;;;;;;5114335;28;20035;-52
2021/03/10 02:48:06;;;;;;;27.38;18.95;;;102.90;2227.20;;;;;;5114242;28;20423;-53
2021/03/10 02:50:33;;;;;;;33.17;22.23;;;102.90;2227.20;;;;;;5113961;28;20031;-52
2021/03/10 02:53:03;;;;;;;29.38;20.75;;;102.80;2227.20;;;;;;5113939;28;20060;-52
2021/03/10 02:55:31;;;;;;;27.08;18.00;;;102.90;2227.20;;;;;;5113895;28;20027;-53
2021/03/10 02:57:57;;;;;;;24.92;17.10;;;102.90;2227.20;;;;;;5114042;28;20039;-52
2021/03/10 03:00:24;;;;;;;28.98;18.45;;;103.10;2227.20;;;;;;5113866;28;20080;-53
2021/03/10 03:02:51;;;;;;;33.65;23.70;;;103.10;2227.20;;;;;;5113983;28;20069;-54
2021/03/10 03:05:17;;;;;;;32.03;22.60;;;102.90;2227.20;;;;;;5113898;28;20035;-52
2021/03/10 03:07:45;;;;;;;30.85;21.20;;;103.00;2227.20;;;;;;5113737;28;20019;-55
2021/03/10 03:10:19;;;;;;;30.75;19.55;;;102.80;2227.20;;;;;;5113544;28;20028;-53
2021/03/10 03:12:45;;;;;;;;;;;102.50;2227.20;;;;;;5114147;28;20020;-53
2021/03/10 03:15:15;;;;;;;54.50;37.85;;;102.70;2227.20;;;;;;5113500;28;19903;-51
2021/03/10 03:17:41;;;;;;;55.60;32.63;;;102.50;2227.20;;;;;;5113620;28;20022;-53
2021/03/10 03:20:08;;;;;;;32.17;22.63;;;102.40;2227.20;;;;;;5113602;28;20038;-55
2021/03/10 03:22:39;;;;;;;31.40;22.40;;;102.40;2227.20;;;;;;5113459;28;20031;-52
2021/03/10 03:25:07;;;;;;;32.33;22.73;;;102.50;2227.20;;;;;;5113316;28;20051;-52
2021/03/10 03:27:33;;;;;;;28.55;21.40;;;102.70;2227.20;;;;;;5112161;28;20032;-54
2021/03/10 03:30:01;;;;;;;28.58;20.17;;;102.70;2227.20;;;;;;5113445;28;20051;-54
2021/03/10 03:32:31;;;;;;;33.30;23.83;;;102.60;2227.20;;;;;;5113307;28;20032;-54
2021/03/10 03:34:58;;;;;;;28.13;20.30;;;102.60;2227.20;;;;;;5113315;28;20084;-52
2021/03/10 03:37:24;;;;;;;33.35;21.15;;;102.80;2227.20;;;;;;5113089;28;20031;-53
2021/03/10 03:39:51;;;;;;;28.15;20.50;;;102.70;2227.20;;;;;;5112390;28;20024;-54
2021/03/10 03:42:18;;;;;;;25.35;16.65;;;102.80;2227.20;;;;;;5113427;28;20061;-54
2021/03/10 03:44:44;;;;;;;28.55;19.48;;;102.50;2227.20;;;;;;5113323;28;20031;-54
2021/03/10 03:47:13;;;;;;;26.80;21.63;;;102.50;2227.20;;;;;;5112949;28;20543;-53
2021/03/10 03:49:46;;;;;;;26.88;18.88;;;102.70;2227.20;;;;;;5113212;28;20040;-55
2021/03/10 03:52:12;;;;;;;;;;;102.90;2227.20;;;;;;5113295;28;20035;-51
2021/03/10 03:54:37;;;;;;;22.42;16.17;;;102.80;2227.20;;;;;;5113207;28;20374;-53
2021/03/10 03:57:03;;;;;;;26.73;17.45;;;103.00;2227.20;;;;;;5112696;28;20038;-53
2021/03/10 03:59:30;;;;;;;25.40;18.05;;;103.00;2227.20;;;;;;5112644;28;20032;-52
2021/03/10 04:01:56;;;;;;;26.92;19.42;;;103.00;2227.20;;;;;;5112920;28;20019;-54
2021/03/10 04:04:22;;;;;;;25.05;17.58;;;103.00;2227.20;;;;;;5112751;28;20027;-52
2021/03/10 04:06:49;;;;;;;28.42;18.73;;;102.80;2227.20;;;;;;5112687;28;20157;-52
2021/03/10 04:09:16;;;;;;;26.02;17.90;;;102.80;2227.20;;;;;;5112569;28;20020;-52
2021/03/10 04:11:49;;;;;;;29.58;20.80;;;102.80;2227.20;;;;;;5112801;28;20024;-51
2021/03/10 04:14:16;;;;;;;26.00;19.98;;;102.80;2227.20;;;;;;5112687;28;20023;-51
2021/03/10 04:16:42;;;;;;;26.77;18.35;;;102.80;2227.20;;;;;;5112509;28;20046;-53
2021/03/10 04:19:08;;;;;;;25.13;18.58;;;102.90;2227.20;;;;;;5112502;28;20102;-52
2021/03/10 04:21:34;;;;;;;26.60;19.40;;;102.70;2227.20;;;;;;5112542;28;20055;-52
2021/03/10 04:24:00;;;;;;;29.42;20.05;;;102.60;2227.20;;;;;;5112040;28;20055;-52
2021/03/10 04:26:26;;;;;;;35.88;30.13;;;102.60;2227.20;;;;;;5112334;28;20127;-54
2021/03/10 04:28:52;;;;;;;36.95;28.70;;;102.70;2227.20;;;;;;5112125;28;20016;-54
2021/03/10 04:31:18;;;;;;;27.15;19.65;;;102.80;2227.20;;;;;;5112340;28;20088;-54
2021/03/10 04:33:44;;;;;;;27.33;22.10;;;102.90;2227.20;;;;;;5112037;28;20482;-54
2021/03/10 04:36:10;;;;;;;33.85;25.42;;;103.00;2227.20;;;;;;5112001;28;20102;-55
2021/03/10 04:38:37;;;;;;;32.58;25.27;;;103.00;2227.20;;;;;;5112482;28;20048;-51
2021/03/10 04:41:03;;;;;;;30.20;19.55;;;103.00;2227.20;;;;;;5111829;28;20493;-54
2021/03/10 04:43:29;;;;;;;28.17;19.65;;;103.20;2227.20;;;;;;5112079;28;20080;-53
2021/03/10 04:45:56;;;;;;;25.90;19.55;;;103.10;2227.20;;;;;;5112008;28;20032;-54
2021/03/10 04:48:22;;;;;;;35.83;24.58;;;103.10;2227.20;;;;;;5093752;28;20032;-53
2021/03/10 04:50:48;;;;;;;34.25;24.02;;;103.20;2227.20;;;;;;5111746;28;20023;-52
2021/03/10 04:53:14;;;;;;;36.63;24.52;;;103.20;2227.20;;;;;;5110953;28;20024;-51
2021/03/10 04:55:40;;;;;;;34.95;24.27;;;102.80;2227.20;;;;;;5111416;28;20035;-55
2021/03/10 04:58:05;;;;;;;33.25;22.17;;;102.90;2227.20;;;;;;5111782;28;20054;-54
2021/03/10 05:00:31;;;;;;;32.15;22.50;;;102.90;2227.20;;;;;;5111575;28;20102;-53
2021/03/10 05:02:57;;;;;;;35.22;24.95;;;103.00;2227.20;;;;;;5111640;28;20032;-54
2021/03/10 05:05:23;;;;;;;58.17;36.15;;;103.00;2227.20;;;;;;5111227;28;20020;-54
2021/03/10 05:07:49;;;;;;;38.10;25.27;;;103.10;2227.20;;;;;;5111523;28;20096;-54
2021/03/10 05:10:15;;;;;;;42.03;26.95;;;103.20;2227.20;;;;;;5111531;28;20103;-51
2021/03/10 05:12:41;;;;;;;44.15;27.17;;;103.10;2227.20;;;;;;5111361;28;20430;-53
2021/03/10 05:15:07;;;;;;;38.30;26.38;;;103.00;2227.20;;;;;;5111535;28;20023;-51
2021/03/10 05:17:34;;;;;;;54.88;35.55;;;103.10;2227.20;;;;;;5111080;28;20028;-53
2021/03/10 05:20:00;;;;;;;40.05;26.20;;;103.20;2227.20;;;;;;5110985;28;20039;-53
2021/03/10 05:22:26;;;;;;;39.72;27.17;;;103.10;2227.20;;;;;;5111159;28;20031;-53
2021/03/10 05:24:52;;;;;;;44.67;27.38;;;103.10;2227.20;;;;;;5111091;28;20063;-55
2021/03/10 05:27:18;;;;;;;40.08;26.55;;;103.10;2227.20;;;;;;5111178;28;20063;-54
2021/03/10 05:29:44;;;;;;;41.10;29.23;;;103.10;2227.20;;;;;;5110947;28;20059;-54
2021/03/10 05:32:10;;;;;;;46.00;32.33;;;103.20;2227.20;;;;;;5110942;28;20527;-54
2021/03/10 05:34:36;;;;;;;45.70;29.08;;;103.20;2227.20;;;;;;5111229;28;20458;-55
2021/03/10 05:37:03;;;;;;;43.60;28.98;;;103.20;2227.20;;;;;;5110827;28;20077;-53
2021/03/10 05:39:29;;;;;;;59.63;38.53;;;103.20;2227.20;;;;;;5111141;28;20023;-52
2021/03/10 05:41:58;;;;;;;53.47;36.15;;;103.30;2227.20;;;;;;5110937;28;20032;-54
2021/03/10 05:44:25;;;;;;;63.42;38.95;;;103.30;2227.20;;;;;;5110867;28;20084;-53
2021/03/10 05:46:54;;;;;;;56.47;37.97;;;103.30;2227.20;;;;;;5110737;28;20051;-54
2021/03/10 05:49:21;;;;;;;54.42;36.40;;;103.30;2227.20;;;;;;5110535;28;20020;-53
2021/03/10 05:51:49;;;;;;;57.20;35.22;;;103.20;2227.20;;;;;;5110629;28;20105;-51
2021/03/10 05:54:15;;;;;;;60.92;38.40;;;103.20;2227.20;;;;;;5110706;28;20059;-53
2021/03/10 05:56:44;;;;;;;54.97;37.97;;;103.30;2227.20;;;;;;5110420;28;20036;-52
2021/03/10 05:59:10;;;;;;;55.38;37.00;;;103.30;2227.20;;;;;;5110761;28;20081;-53
2021/03/10 06:01:36;;;;;;;124.32;79.25;;;103.30;2227.20;;;;;;5111004;28;20024;-56
2021/03/10 06:04:07;;;;;;;87.82;54.70;;;128.00;2252.80;;;;;;5110288;28;20028;-52
2021/03/10 06:06:41;;;;;;;63.60;38.55;;;128.00;2252.80;;;;;;5110293;28;20128;-54
2021/03/10 06:09:14;;;;;;;49.42;34.08;;;103.30;2227.20;;;;;;5111007;28;20201;-54
2021/03/10 06:11:52;;;;;;;;;;;103.30;2227.20;;;;;;5110782;28;20058;-53
2021/03/10 06:14:18;;;;;;;71.22;44.70;;;128.00;2252.80;;;;;;5110569;28;20254;-52
2021/03/10 06:16:43;;;;;;;63.45;42.35;;;103.30;2227.20;;;;;;5110263;28;20028;-55
2021/03/10 06:19:09;;;;;;;78.55;52.95;;;128.10;2252.80;;;;;;5110337;28;20024;-54
2021/03/10 06:21:36;;;;;;;87.97;54.65;;;128.10;2252.80;;;;;;5110694;28;20027;-53
2021/03/10 06:24:04;;;;;;;99.22;66.15;;;128.10;2252.80;;;;;;5110290;28;20024;-55
2021/03/10 06:26:35;;;;;;;126.20;83.22;;;128.10;2252.80;;;;;;5110066;28;20486;-54
2021/03/10 06:29:13;;;;;;;171.27;112.18;;;128.10;2252.80;;;;;;5110160;28;20462;-55
2021/03/10 06:31:39;;;;;;;176.15;110.47;;;128.20;2252.80;;;;;;5110430;28;20020;-55
2021/03/10 06:34:15;;;;;;;133.98;91.63;;;128.00;2252.80;;;;;;5110403;28;20076;-51
2021/03/10 06:36:49;;;;;;;138.25;88.90;;;103.30;2227.20;;;;;;5110220;28;20019;-53
2021/03/10 06:39:29;;;;;;;158.05;105.50;;;103.20;2227.20;;;;;;5110347;28;20419;-50
2021/03/10 06:41:55;;;;;;;115.35;79.25;;;103.30;2227.20;;;;;;5110311;28;20032;-53
2021/03/10 06:44:22;;;;;;;67.50;45.97;;;103.10;2227.20;;;;;;5110087;28;20355;-53
2021/03/10 06:46:58;;;;;;;151.68;111.32;;;103.10;2227.20;;;;;;5110213;28;20118;-57
2021/03/10 06:49:29;;;;;;;105.32;67.13;;;103.20;2227.20;;;;;;5110157;28;20032;-53
2021/03/10 06:52:06;;;;;;;110.40;68.95;;;103.10;2227.20;;;;;;5110267;28;20359;-55
2021/03/10 06:54:32;;;;;;;112.68;69.03;;;128.00;2252.80;;;;;;5109863;28;20043;-53
2021/03/10 06:57:09;;;;;;;97.47;63.42;;;128.00;2252.80;;;;;;5110027;28;20377;-55
2021/03/10 06:59:43;;;;;;;98.68;63.60;;;128.20;2252.80;;;;;;5110286;28;20029;-52
2021/03/10 07:02:23;;;;;;;80.50;57.92;;;128.40;2252.80;;;;;;5107124;28;20435;-52
2021/03/10 07:05:11;;;;;;;86.18;55.33;;;128.50;2252.80;;;;;;5109985;28;20035;-51
2021/03/10 07:07:37;;;;;;;83.68;56.30;;;128.60;2252.80;;;;;;5107103;28;20090;-56
2021/03/10 07:10:04;;;;;;;73.88;49.50;;;128.60;2227.20;;;;;;5109913;28;20020;-54
2021/03/10 07:12:31;;;;;;;86.82;56.78;;;128.80;2227.20;;;;;;5109726;28;20032;-55
2021/03/10 07:15:01;;;;;;;126.32;86.60;;;128.70;2252.80;;;;;;5110292;28;20024;-54
2021/03/10 07:17:27;;;;;;;95.28;61.65;;;128.70;2227.20;;;;;;5113573;28;20023;-54
2021/03/10 07:19:53;;;;;;;131.98;71.45;;;128.80;2227.20;;;;;;5113333;28;20024;-55
2021/03/10 07:22:26;;;;;;;80.47;52.25;;;153.60;2201.60;;;;;;5113500;28;20042;-50
2021/03/10 07:25:12;;;;;;;78.72;53.42;;;153.60;2201.60;;;;;;5113352;28;20118;-56
2021/03/10 07:27:52;;;;;;;83.95;58.42;;;153.60;2201.60;;;;;;5113599;28;20482;-53
2021/03/10 07:30:18;;;;;;;81.28;55.40;;;153.70;2176.00;;;;;;5113337;28;20537;-52
2021/03/10 07:32:44;;;;;;;97.43;64.10;;;153.70;2176.00;;;;;;5113151;28;20099;-54
2021/03/10 07:35:11;;;;;;;104.03;66.93;;;153.70;2150.40;;;;;;5112575;28;20038;-51
2021/03/10 07:37:39;;;;;;;94.38;67.63;;;153.70;2176.00;;;;;;5112606;28;20027;-53
2021/03/10 07:40:15;;;;;;;118.28;79.15;;;153.60;2176.00;;;;;;5113157;28;20030;-50
2021/03/10 07:42:55;;;;;;;114.20;78.32;;;128.70;2201.60;;;;;;5107010;28;20115;-53
2021/03/10 07:45:48;;;;;;;115.35;74.82;;;128.70;2227.20;;;;;;5112862;28;20032;-51
2021/03/10 07:48:14;;;;;;;124.43;80.25;;;128.30;2252.80;;;;;;5112416;28;20036;-53
2021/03/10 07:50:46;;;;;;;144.25;102.05;;;128.30;2252.80;;;;;;5113505;28;20030;-51
2021/03/10 07:53:13;;;;;;;136.57;91.78;;;128.10;2252.80;;;;;;5113123;28;20024;-51
2021/03/10 07:55:46;;;;;;;119.80;88.82;;;103.30;2227.20;;;;;;5112896;28;20035;-54
2021/03/10 07:58:24;;;;;;;110.50;74.32;;;103.30;2227.20;;;;;;5112671;28;20048;-54
2021/03/10 08:00:50;;;;;;;104.72;72.15;;;128.10;2252.80;;;;;;5112848;28;20027;-51
2021/03/10 08:03:32;;;;;;;86.25;55.95;;;128.40;2252.80;;;;;;5112803;28;20542;-52
2021/03/10 08:06:03;;;;;;;75.25;54.08;;;128.60;2252.80;;;;;;5112526;28;20050;-52
2021/03/10 08:08:39;;;;;;;87.25;68.80;;;128.70;2252.80;;;;;;5112607;28;20419;-53
2021/03/10 08:11:16;;;;;;;79.63;54.50;;;128.80;2252.80;;;;;;5113122;28;20028;-55
2021/03/10 08:13:44;;;;;;;115.63;86.05;;;128.80;2227.20;;;;;;5112266;28;20073;-51
2021/03/10 08:16:11;;;;;;;100.75;68.05;;;128.70;2227.20;;;;;;5112330;28;20058;-53
2021/03/10 08:18:39;;;;;;;104.38;72.50;;;128.90;2227.20;;;;;;5110268;28;20027;-53
2021/03/10 08:21:13;;;;;;;72.97;46.80;;;128.60;2252.80;;;;;;5110266;28;20024;-54
2021/03/10 08:23:40;;;;;;;67.97;46.70;;;128.50;2252.80;;;;;;5110888;28;20020;-56
2021/03/10 08:26:07;;;;;;;72.50;45.20;;;128.40;2252.80;;;;;;5111375;28;20031;-55
2021/03/10 08:28:37;;;;;;;75.05;49.85;;;128.40;2252.80;;;;;;5112064;28;20020;-59
2021/03/10 08:31:06;;;;;;;79.47;53.53;;;103.20;2227.20;;;;;;5112434;28;20110;-57
2021/03/10 08:33:43;;;;;;;84.65;52.50;;;128.10;2252.80;;;;;;5112164;28;20054;-59
2021/03/10 08:36:09;;;;;;;78.57;49.95;;;128.40;2252.80;;;;;;5112504;28;20023;-58
2021/03/10 08:38:35;;;;;;;81.70;53.90;;;128.70;2252.80;;;;;;5096504;28;20435;-56
2021/03/10 08:41:08;;;;;;;133.15;84.25;;;128.50;2252.80;;;;;;5091683;28;20016;-57
2021/03/10 08:43:34;;;;;;;;;;;128.20;2252.80;;;;;;5092141;28;20024;-57
2021/03/10 08:46:00;;;;;;;104.93;66.50;;;128.50;2252.80;;;;;;5091522;28;20380;-56
2021/03/10 08:48:33;;;;;;;178.43;105.32;;;128.60;2227.20;;;;;;5091556;28;20051;-58
2021/03/10 08:51:01;;;;;;;96.28;62.90;;;128.70;2227.20;;;;;;5091882;28;20042;-57
2021/03/10 08:53:27;;;;;;;92.72;61.85;;;128.70;2227.20;;;;;;5091663;28;20383;-59
2021/03/10 08:55:53;;;;;;;129.10;85.30;;;128.90;2201.60;;;;;;5091083;28;20028;-57
2021/03/10 08:58:19;;;;;;;100.57;69.93;;;128.80;2227.20;;;;;;5091643;28;20048;-55
2021/03/10 09:00:46;;;;;;;69.95;47.92;;;128.90;2201.60;;;;;;5091814;28;20028;-56
2021/03/10 09:03:19;;;;;;;69.30;45.38;;;128.90;2201.60;;;;;;5090761;28;20044;-54
2021/03/10 09:05:46;;;;;;;68.57;45.78;;;153.60;2176.00;;;;;;5091728;28;20032;-54
2021/03/10 09:08:14;;;;;;;82.15;54.47;;;153.70;2176.00;;;;;;5091323;28;20032;-53
2021/03/10 09:10:49;;;;;;;68.53;48.30;;;153.80;2176.00;;;;;;5091380;28;20020;-57
2021/03/10 09:13:17;;;;;;;64.22;43.70;;;153.60;2176.00;;;;;;5092493;28;20040;-58
2021/03/10 09:15:43;;;;;;;69.22;44.58;;;153.60;2150.40;;;;;;5111261;28;20351;-56
2021/03/10 09:18:09;;;;;;;71.05;46.33;;;128.80;2201.60;;;;;;5111371;28;20034;-58
2021/03/10 09:20:40;;;;;;;65.40;44.88;;;128.70;2227.20;;;;;;5111237;28;20465;-55
2021/03/10 09:23:07;;;;;;;65.20;44.05;;;128.70;2227.20;;;;;;5107496;28;20020;-56
2021/03/10 09:25:35;;;;;;;75.15;50.13;;;128.70;2227.20;;;;;;5099344;28;20385;-55
2021/03/10 09:28:11;;;;;;;77.25;50.40;;;128.90;2201.60;;;;;;5101182;28;20568;-57
2021/03/10 09:30:41;;;;;;;78.07;52.65;;;153.60;2176.00;;;;;;5101279;28;20055;-57
2021/03/10 09:33:20;;;;;;;76.75;52.17;;;153.80;2150.40;;;;;;5101502;28;20024;-57
2021/03/10 09:35:56;;;;;;;87.18;58.05;;;154.00;2124.80;;;;;;5101424;28;20019;-54
2021/03/10 09:38:23;;;;;;;137.77;97.00;;;154.00;2124.80;;;;;;5100518;28;20019;-56
2021/03/10 09:40:58;;;;;;;100.55;70.03;;;154.10;2124.80;;;;;;5099826;28;20028;-56
2021/03/10 09:43:27;;;;;;;105.45;67.88;;;154.10;2124.80;;;;;;5101892;28;20420;-56
2021/03/10 09:46:08;;;;;;;111.55;74.93;;;154.10;2099.20;;;;;;5099615;28;20038;-58
2021/03/10 09:48:39;;;;;;;107.07;73.82;;;154.20;2124.80;;;;;;5100999;28;20049;-55
2021/03/10 09:51:09;;;;;;;106.60;76.90;;;154.40;2073.60;;;;;;5101821;28;20024;-55
2021/03/10 09:53:41;;;;;;;107.00;69.53;;;154.40;2099.20;;;;;;5099482;28;20123;-56
2021/03/10 09:56:09;;;;;;;119.25;76.63;;;154.40;2073.60;;;;;;5101820;28;20032;-55
2021/03/10 09:58:51;;;;;;;151.88;97.90;;;179.20;2048.00;;;;;;5099237;28;20051;-56
2021/03/10 10:01:17;;;;;;;135.32;91.05;;;154.50;2073.60;;;;;;5101636;28;20462;-56
2021/03/10 10:03:43;;;;;;;137.88;97.70;;;154.50;2073.60;;;;;;5104416;28;20062;-58
2021/03/10 10:06:10;;;;;;;138.20;106.40;;;154.30;2099.20;;;;;;5110527;28;20071;-57
2021/03/10 10:08:38;;;;;;;113.43;81.70;;;154.20;2099.20;;;;;;5101174;28;20514;-55
2021/03/10 10:11:05;;;;;;;76.30;52.92;;;154.40;2073.60;;;;;;5099636;28;20023;-55
2021/03/10 10:13:31;;;;;;;110.32;72.60;;;154.00;2124.80;;;;;;5099688;28;20028;-57
2021/03/10 10:15:56;;;;;;;122.38;83.15;;;153.80;2176.00;;;;;;5100361;28;20068;-57
2021/03/10 10:18:23;;;;;;;77.97;58.13;;;154.10;2124.80;;;;;;5101088;28;20104;-57
2021/03/10 10:20:49;;;;;;;87.25;61.42;;;153.80;2150.40;;;;;;5110167;28;20149;-57
2021/03/10 10:23:15;;;;;;;86.03;60.25;;;153.90;2150.40;;;;;;5110507;28;20016;-57
2021/03/10 10:25:41;;;;;;;92.85;61.53;;;153.80;2176.00;;;;;;5110204;28;20054;-56
2021/03/10 10:28:07;;;;;;;87.20;58.88;;;153.70;2176.00;;;;;;5110458;28;20537;-57
2021/03/10 10:30:33;;;;;;;79.03;54.65;;;128.90;2201.60;;;;;;5110224;28;20024;-56
2021/03/10 10:32:59;;;;;;;90.47;58.65;;;128.30;2252.80;;;;;;5110468;28;20030;-57
2021/03/10 10:35:24;;;;;;;84.13;54.35;;;128.50;2252.80;;;;;;5109864;28;20465;-57
2021/03/10 10:37:50;;;;;;;68.07;49.65;;;128.70;2252.80;;;;;;5110060;28;20024;-57
2021/03/10 10:40:19;;;;;;;87.80;56.03;;;128.40;2252.80;;;;;;5110357;28;20020;-56
2021/03/10 10:42:45;;;;;;;77.60;52.80;;;128.60;2252.80;;;;;;5110286;28;20055;-57
2021/03/10 10:45:12;;;;;;;77.88;52.97;;;128.70;2227.20;;;;;;5110039;28;20519;-57
2021/03/10 10:47:38;;;;;;;63.10;44.42;;;128.70;2252.80;;;;;;5110364;28;20070;-56
2021/03/10 10:50:06;;;;;;;128.68;100.10;;;128.80;2227.20;;;;;;5110398;28;20074;-57
2021/03/10 10:52:35;;;;;;;69.22;46.75;;;128.90;2201.60;;;;;;5114035;28;20127;-57
2021/03/10 10:55:03;;;;;;;74.45;58.33;;;153.60;2201.60;;;;;;5113883;28;20024;-57
2021/03/10 10:57:28;;;;;;;59.17;46.72;;;153.60;2201.60;;;;;;5113858;28;20052;-57
2021/03/10 10:59:54;;;;;;;56.88;39.67;;;153.70;2201.60;;;;;;5114076;28;20390;-57
2021/03/10 11:02:20;;;;;;;56.03;40.33;;;153.80;2176.00;;;;;;5113851;28;20070;-58
2021/03/10 11:04:46;;;;;;;58.17;38.50;;;154.00;2150.40;;;;;;5095590;28;20371;-57
2021/03/10 11:07:12;;;;;;;66.95;43.00;;;154.10;2124.80;;;;;;5113734;28;20039;-57
2021/03/10 11:09:39;;;;;;;59.20;43.25;;;153.90;2150.40;;;;;;5113950;28;20374;-58
2021/03/10 11:12:11;;;;;;;124.78;76.30;;;154.00;2150.40;;;;;;5113780;28;20085;-57
2021/03/10 11:14:39;;;;;;;56.97;38.55;;;153.80;2176.00;;;;;;5113782;28;20020;-58
2021/03/10 11:17:06;;;;;;;40.97;28.08;;;154.10;2150.40;;;;;;5113477;28;20023;-57
2021/03/10 11:19:31;;;;;;;72.60;51.75;;;154.10;2150.40;;;;;;5113396;28;20043;-57
2021/03/10 11:21:57;;;;;;;184.02;132.65;;;179.30;2073.60;;;;;;5113631;28;20550;-57
2021/03/10 11:24:23;;;;;;;199.70;132.32;;;179.50;2048.00;;;;;;5113373;28;20346;-57
2021/03/10 11:26:49;;;;;;;65.15;43.50;;;179.70;1996.80;;;;;;5113387;28;20044;-58
2021/03/10 11:29:14;;;;;;;343.60;222.68;;;180.00;1971.20;;;;;;5113148;28;20393;-57
2021/03/10 11:31:40;;;;;;;80.20;52.63;;;205.00;1894.40;;;;;;5113242;28;20024;-58
2021/03/10 11:34:06;;;;;;;80.93;52.30;;;205.10;1894.40;;;;;;5113611;28;20034;-57
2021/03/10 11:36:32;;;;;;;263.50;164.20;;;205.30;1843.20;;;;;;5113306;28;20103;-58
2021/03/10 11:38:58;;;;;;;47.95;32.35;;;205.30;1843.20;;;;;;5113300;28;20486;-58
2021/03/10 11:41:24;;;;;;;58.15;36.13;;;205.30;1817.60;;;;;;5113094;28;20024;-58
2021/03/10 11:43:50;;;;;;;60.42;37.30;;;205.20;1817.60;;;;;;5112847;28;20380;-58
2021/03/10 11:46:16;;;;;;;52.20;33.92;;;204.90;1843.20;;;;;;5112989;28;20052;-58
2021/03/10 11:48:41;;;;;;;31.33;24.30;;;180.10;1894.40;;;;;;5112860;28;20056;-58
2021/03/10 11:51:08;;;;;;;34.42;24.52;;;179.90;1894.40;;;;;;5113001;28;20028;-58
2021/03/10 11:53:34;;;;;;;29.95;20.70;;;179.80;1920.00;;;;;;5112723;28;20462;-57
2021/03/10 11:56:00;;;;;;;23.90;17.80;;;179.80;1868.80;;;;;;5113214;28;20039;-58
2021/03/10 11:58:27;;;;;;;28.38;18.88;;;179.70;1894.40;;;;;;5112818;28;20047;-58
2021/03/10 12:00:55;;;;;;;33.35;22.67;;;179.80;1868.80;;;;;;5112143;28;20109;-58
2021/03/10 12:03:21;;;;;;;34.92;25.52;;;179.90;1868.80;;;;;;5112533;28;20026;-58
2021/03/10 12:05:47;;;;;;;29.60;20.50;;;204.80;1792.00;;;;;;5112472;28;20031;-58